createdAt,value
2022-09-27T00:01:10.964Z,96.68
2022-09-27T00:03:38.722Z,67.95
2022-09-27T00:06:16.850Z,101.75
2022-09-27T00:08:44.033Z,125.05
2022-09-27T00:11:19.002Z,95.95
2022-09-27T00:13:46.012Z,114.13
2022-09-27T00:16:12.983Z,182.02
2022-09-27T00:18:40.029Z,227.45
2022-09-27T00:21:13.534Z,137.45
2022-09-27T00:23:41.144Z,217.50
2022-09-27T00:26:10.784Z,417.08
2022-09-27T00:28:37.905Z,116.15
2022-09-27T00:31:05.160Z,279.98
2022-09-27T00:33:32.412Z,507.08
2022-09-27T00:36:07.155Z,134.63
2022-09-27T00:38:34.048Z,757.03
2022-09-27T00:41:01.108Z,636.42
2022-09-27T00:43:48.791Z,121.90
2022-09-27T00:46:23.321Z,161.00
2022-09-27T00:49:22.125Z,220.93
2022-09-27T00:52:02.461Z,290.23
2022-09-27T00:54:31.704Z,139.27
2022-09-27T00:56:59.598Z,132.15
2022-09-27T00:59:35.951Z,200.27
2022-09-27T01:02:05.451Z,128.77
2022-09-27T01:04:33.639Z,169.57
2022-09-27T01:07:00.977Z,167.57
2022-09-27T01:09:29.327Z,181.93
2022-09-27T01:12:24.045Z,138.85
2022-09-27T01:15:19.604Z,103.68
2022-09-27T01:18:21.961Z,127.70
2022-09-27T01:21:08.811Z,118.60
2022-09-27T01:24:03.503Z,120.10
2022-09-27T01:26:57.429Z,106.70
2022-09-27T01:29:50.522Z,122.90
2022-09-27T01:32:23.012Z,116.15
2022-09-27T01:35:15.111Z,118.85
2022-09-27T01:37:58.995Z,99.03
2022-09-27T01:40:51.559Z,124.40
2022-09-27T01:43:55.472Z,136.25
2022-09-27T01:46:34.377Z,113.38
2022-09-27T01:49:23.163Z,131.32
2022-09-27T01:52:00.633Z,110.32
2022-09-27T01:54:48.682Z,172.40
2022-09-27T01:57:47.520Z,124.93
2022-09-27T02:00:21.471Z,107.05
2022-09-27T02:03:06.321Z,129.48
2022-09-27T02:05:47.773Z,101.05
2022-09-27T02:08:53.076Z,111.55
2022-09-27T02:11:35.982Z,92.38
2022-09-27T02:14:39.148Z,121.25
2022-09-27T02:17:17.167Z,93.80
2022-09-27T02:19:50.692Z,126.50
2022-09-27T02:22:24.468Z,123.65
2022-09-27T02:24:59.597Z,97.70
2022-09-27T02:30:12.030Z,123.28
2022-09-27T02:32:41.424Z,115.07
2022-09-27T02:35:32.020Z,120.75
2022-09-27T02:37:59.588Z,108.10
2022-09-27T02:40:31.734Z,90.00
2022-09-27T02:43:00.651Z,73.78
2022-09-27T02:45:36.376Z,93.53
2022-09-27T02:48:15.728Z,81.75
2022-09-27T02:50:58.630Z,73.65
2022-09-27T02:53:47.969Z,65.10
2022-09-27T02:56:47.426Z,60.65
2022-09-27T02:59:48.637Z,60.38
2022-09-27T03:02:42.251Z,79.95
2022-09-27T03:05:32.509Z,92.80
2022-09-27T03:08:00.231Z,85.82
2022-09-27T03:10:29.477Z,89.88
2022-09-27T03:12:58.796Z,84.90
2022-09-27T03:15:25.956Z,86.13
2022-09-27T03:18:13.910Z,74.75
2022-09-27T03:21:06.599Z,79.07
2022-09-27T03:23:34.109Z,66.07
2022-09-27T03:26:00.936Z,70.75
2022-09-27T03:28:29.803Z,67.20
2022-09-27T03:30:57.252Z,58.85
2022-09-27T03:33:48.727Z,64.82
2022-09-27T03:36:15.594Z,45.35
2022-09-27T03:38:42.511Z,48.95
2022-09-27T03:41:13.053Z,49.55
2022-09-27T03:43:41.469Z,54.97
2022-09-27T03:46:08.568Z,57.42
2022-09-27T03:48:35.576Z,48.83
2022-09-27T03:51:02.787Z,42.72
2022-09-27T03:53:29.699Z,43.22
2022-09-27T03:55:57.381Z,53.55
2022-09-27T03:58:24.381Z,42.70
2022-09-27T04:00:51.296Z,43.88
2022-09-27T04:03:19.930Z,38.30
2022-09-27T04:05:49.665Z,36.65
2022-09-27T04:08:22.245Z,42.03
2022-09-27T04:10:50.179Z,46.90
2022-09-27T04:13:17.121Z,39.10
2022-09-27T04:15:52.562Z,49.50
2022-09-27T04:18:31.777Z,46.03
2022-09-27T04:21:22.700Z,48.65
2022-09-27T04:23:52.068Z,62.78
2022-09-27T04:26:22.377Z,38.65
2022-09-27T04:28:54.729Z,40.60
2022-09-27T04:31:23.179Z,40.08
2022-09-27T04:34:13.342Z,54.88
2022-09-27T04:36:40.330Z,54.95
2022-09-27T04:39:10.885Z,41.03
2022-09-27T04:41:40.950Z,49.55
2022-09-27T04:44:07.935Z,47.50
2022-09-27T04:46:35.266Z,44.88
2022-09-27T04:49:03.294Z,42.80
2022-09-27T04:51:32.441Z,44.40
2022-09-27T04:54:00.172Z,40.83
2022-09-27T04:56:29.880Z,40.13
2022-09-27T04:58:56.854Z,41.05
2022-09-27T05:01:23.775Z,35.55
2022-09-27T05:03:59.618Z,83.28
2022-09-27T05:06:28.247Z,61.25
2022-09-27T05:08:58.621Z,56.60
2022-09-27T05:11:28.255Z,392.60
2022-09-27T05:14:14.265Z,89.10
2022-09-27T05:16:54.503Z,245.85
2022-09-27T05:19:33.981Z,40.65
2022-09-27T05:22:21.178Z,40.17
2022-09-27T05:24:48.262Z,39.15
2022-09-27T05:27:19.245Z,47.25
2022-09-27T05:29:48.016Z,36.90
2022-09-27T05:32:26.690Z,36.25
2022-09-27T05:35:14.714Z,47.45
2022-09-27T05:37:41.839Z,48.08
2022-09-27T05:40:29.468Z,40.13
2022-09-27T05:42:57.250Z,36.60
2022-09-27T05:45:25.127Z,35.60
2022-09-27T05:47:57.880Z,32.38
2022-09-27T05:50:26.646Z,30.98
2022-09-27T05:52:54.433Z,26.88
2022-09-27T05:55:21.696Z,32.88
2022-09-27T05:58:00.168Z,29.40
2022-09-27T06:00:38.239Z,26.02
2022-09-27T06:03:15.170Z,19.20
2022-09-27T06:06:11.142Z,22.92
2022-09-27T06:08:45.697Z,23.17
2022-09-27T06:11:18.187Z,21.73
2022-09-27T06:13:46.178Z,21.73
2022-09-27T06:16:13.185Z,23.90
2022-09-27T06:18:44.335Z,23.45
2022-09-27T06:21:11.342Z,22.80
2022-09-27T06:23:38.313Z,21.83
2022-09-27T06:26:12.951Z,21.33
2022-09-27T06:28:58.204Z,23.33
2022-09-27T06:31:25.188Z,23.67
2022-09-27T06:34:10.671Z,20.17
2022-09-27T06:36:37.639Z,20.98
2022-09-27T06:39:04.720Z,19.92
2022-09-27T06:41:40.150Z,17.65
2022-09-27T06:44:29.733Z,18.98
2022-09-27T06:47:15.541Z,20.30
2022-09-27T06:50:14.777Z,20.17
2022-09-27T06:52:49.752Z,24.77
2022-09-27T06:55:19.256Z,19.05
2022-09-27T06:58:04.883Z,17.42
2022-09-27T07:00:32.758Z,18.42
2022-09-27T07:03:36.555Z,19.60
2022-09-27T07:06:28.780Z,20.48
2022-09-27T07:09:02.830Z,19.90
2022-09-27T07:11:30.838Z,20.75
2022-09-27T07:13:58.061Z,21.98
2022-09-27T07:16:25.373Z,18.95
2022-09-27T07:18:53.216Z,20.50
2022-09-27T07:21:20.417Z,22.92
2022-09-27T07:23:47.727Z,22.40
2022-09-27T07:26:16.624Z,21.67
2022-09-27T07:28:44.603Z,19.23
2022-09-27T07:31:15.654Z,20.10
2022-09-27T07:33:43.623Z,19.88
2022-09-27T07:36:13.127Z,20.17
2022-09-27T07:38:42.952Z,20.67
2022-09-27T07:41:15.029Z,22.77
2022-09-27T07:43:45.099Z,22.38
2022-09-27T07:46:13.697Z,21.00
2022-09-27T07:48:52.672Z,22.88
2022-09-27T07:51:34.365Z,23.48
2022-09-27T07:54:17.365Z,24.48
2022-09-27T07:57:04.020Z,24.40
2022-09-27T07:59:32.525Z,24.45
2022-09-27T08:02:00.181Z,23.35
2022-09-27T08:04:27.626Z,24.73
2022-09-27T08:06:55.367Z,27.20
2022-09-27T08:09:22.869Z,22.55
2022-09-27T08:11:49.751Z,25.67
2022-09-27T08:14:17.911Z,29.15
2022-09-27T08:16:47.469Z,24.90
2022-09-27T08:19:30.613Z,18.70
2022-09-27T08:22:16.724Z,19.58
2022-09-27T08:24:56.482Z,16.25
2022-09-27T08:28:00.615Z,18.55
2022-09-27T08:30:42.666Z,13.57
2022-09-27T08:33:09.911Z,13.40
2022-09-27T08:35:36.985Z,16.00
2022-09-27T08:38:06.103Z,14.00
2022-09-27T08:41:13.481Z,13.05
2022-09-27T08:44:07.890Z,17.15
2022-09-27T08:46:51.720Z,16.52
2022-09-27T08:49:36.645Z,15.63
2022-09-27T08:52:08.975Z,13.40
2022-09-27T08:54:38.850Z,17.77
2022-09-27T08:57:13.236Z,19.17
2022-09-27T08:59:47.328Z,27.90
2022-09-27T09:02:25.240Z,19.23
2022-09-27T09:05:22.048Z,15.23
2022-09-27T09:08:21.914Z,15.63
2022-09-27T09:11:33.000Z,16.38
2022-09-27T09:14:29.277Z,16.80
2022-09-27T09:17:19.373Z,16.58
2022-09-27T09:20:31.462Z,15.13
2022-09-27T09:23:19.906Z,12.48
2022-09-27T09:25:56.586Z,12.68
2022-09-27T09:28:30.170Z,13.35
2022-09-27T09:31:19.339Z,13.48
2022-09-27T09:34:00.446Z,13.07
2022-09-27T09:36:35.917Z,21.95
2022-09-27T09:39:15.691Z,23.70
2022-09-27T09:42:20.401Z,13.68
2022-09-27T09:45:16.626Z,17.08
2022-09-27T09:47:52.045Z,13.35
2022-09-27T09:50:29.030Z,16.92
2022-09-27T09:53:13.391Z,14.00
2022-09-27T09:55:44.031Z,11.73
2022-09-27T09:58:23.269Z,14.90
2022-09-27T10:01:00.790Z,18.60
2022-09-27T10:03:29.094Z,17.80
2022-09-27T10:05:56.299Z,15.57
2022-09-27T10:08:24.681Z,11.50
2022-09-27T10:11:26.982Z,13.75
2022-09-27T10:14:13.512Z,16.35
2022-09-27T10:16:49.081Z,21.42
2022-09-27T10:19:26.442Z,13.40
2022-09-27T10:21:56.459Z,20.27
2022-09-27T10:24:25.572Z,17.45
2022-09-27T10:27:10.464Z,13.20
2022-09-27T10:29:39.904Z,13.65
2022-09-27T10:32:31.871Z,14.93
2022-09-27T10:35:40.387Z,15.85
2022-09-27T10:38:27.912Z,17.40
2022-09-27T10:41:21.934Z,17.92
2022-09-27T10:43:50.004Z,15.98
2022-09-27T10:46:28.074Z,17.80
2022-09-27T10:49:41.772Z,22.58
2022-09-27T10:52:29.141Z,20.67
2022-09-27T10:55:08.635Z,17.13
2022-09-27T10:57:41.783Z,13.77
2022-09-27T11:00:28.469Z,15.07
2022-09-27T11:03:00.156Z,20.67
2022-09-27T11:05:35.641Z,16.33
2022-09-27T11:08:23.353Z,16.45
2022-09-27T11:11:17.827Z,18.20
2022-09-27T11:14:04.508Z,17.08
2022-09-27T11:16:46.419Z,16.58
2022-09-27T11:19:36.126Z,18.40
2022-09-27T11:22:28.168Z,9.98
2022-09-27T11:25:12.927Z,12.52
2022-09-27T11:28:21.154Z,13.38
2022-09-27T11:30:57.288Z,13.52
2022-09-27T11:34:02.224Z,16.88
2022-09-27T11:36:54.387Z,13.80
2022-09-27T11:39:41.009Z,12.55
2022-09-27T11:42:14.335Z,13.90
2022-09-27T11:45:34.378Z,21.33
2022-09-27T11:48:05.269Z,15.35
2022-09-27T11:50:43.011Z,15.43
2022-09-27T11:56:30.804Z,14.63
2022-09-27T11:59:25.037Z,13.85
2022-09-27T12:02:26.614Z,19.55
2022-09-27T12:05:41.058Z,13.52
2022-09-27T12:08:34.552Z,14.35
2022-09-27T12:11:18.390Z,13.95
2022-09-27T12:13:53.642Z,17.85
2022-09-27T12:16:23.834Z,17.23
2022-09-27T12:18:53.796Z,13.00
2022-09-27T12:21:43.347Z,13.82
2022-09-27T12:24:21.371Z,18.80
2022-09-27T12:27:16.802Z,15.02
2022-09-27T12:29:47.651Z,14.40
2022-09-27T12:32:45.226Z,17.65
2022-09-27T12:38:15.137Z,9.32
2022-09-27T12:40:52.007Z,12.18
2022-09-27T12:43:32.167Z,16.33
2022-09-27T12:46:20.127Z,7.93
2022-09-27T12:49:10.273Z,11.25
2022-09-27T12:51:54.416Z,9.90
2022-09-27T12:55:05.956Z,8.00
2022-09-27T12:57:50.798Z,9.70
2022-09-27T13:00:26.242Z,8.82
2022-09-27T13:03:22.399Z,11.07
2022-09-27T13:06:24.436Z,11.35
2022-09-27T13:09:07.311Z,8.02
2022-09-27T13:11:40.772Z,5.75
2022-09-27T13:14:18.432Z,9.30
2022-09-27T13:16:48.196Z,20.02
2022-09-27T13:19:35.918Z,6.65
2022-09-27T13:22:08.553Z,9.90
2022-09-27T13:24:55.418Z,10.23
2022-09-27T13:27:45.955Z,9.40
2022-09-27T13:30:21.317Z,14.07
2022-09-27T13:33:09.804Z,10.20
2022-09-27T13:36:16.116Z,9.98
2022-09-27T13:39:11.713Z,11.43
2022-09-27T13:42:14.746Z,12.02
2022-09-27T13:45:13.513Z,10.38
2022-09-27T13:47:47.161Z,10.57
2022-09-27T13:50:33.803Z,12.88
2022-09-27T13:53:35.502Z,9.38
2022-09-27T13:56:03.401Z,13.10
2022-09-27T13:58:45.892Z,9.55
2022-09-27T14:01:48.289Z,17.60
2022-09-27T14:04:22.869Z,14.70
2022-09-27T14:06:55.357Z,12.05
2022-09-27T14:09:28.056Z,12.70
2022-09-27T14:12:12.700Z,8.27
2022-09-27T14:14:43.845Z,9.98
2022-09-27T14:17:12.813Z,9.68
2022-09-27T14:19:44.934Z,10.82
2022-09-27T14:22:19.443Z,6.20
2022-09-27T14:25:18.239Z,5.00
2022-09-27T14:27:49.124Z,3.75
2022-09-27T14:30:24.878Z,5.18
2022-09-27T14:33:01.682Z,3.85
2022-09-27T14:36:08.499Z,4.53
2022-09-27T14:38:38.976Z,3.40
2022-09-27T14:41:28.121Z,5.78
2022-09-27T14:43:56.440Z,4.38
2022-09-27T14:46:31.983Z,1.48
2022-09-27T14:48:59.816Z,1.93
2022-09-27T14:51:32.179Z,6.97
2022-09-27T14:54:05.735Z,4.05
2022-09-27T14:56:37.565Z,3.47
2022-09-27T14:59:11.513Z,2.28
2022-09-27T15:01:40.246Z,8.45
2022-09-27T15:04:13.861Z,0.88
2022-09-27T15:06:42.446Z,2.20
2022-09-27T15:09:14.872Z,3.17
2022-09-27T15:11:46.340Z,10.55
2022-09-27T15:14:16.681Z,4.40
2022-09-27T15:16:48.159Z,3.95
2022-09-27T15:19:17.976Z,4.10
2022-09-27T15:21:45.234Z,2.92
2022-09-27T15:24:41.188Z,3.70
2022-09-27T15:27:18.233Z,1.58
2022-09-27T15:29:51.461Z,3.10
2022-09-27T15:32:21.926Z,2.10
2022-09-27T15:34:48.997Z,4.18
2022-09-27T15:37:43.978Z,3.58
2022-09-27T15:40:16.816Z,2.47
2022-09-27T15:42:58.006Z,3.33
2022-09-27T15:45:38.998Z,2.22
2022-09-27T15:48:15.245Z,3.97
2022-09-27T15:50:42.754Z,3.42
2022-09-27T15:53:10.518Z,1.85
2022-09-27T15:55:45.483Z,2.05
2022-09-27T15:58:20.518Z,5.93
2022-09-27T16:00:56.191Z,3.13
2022-09-27T16:03:25.302Z,4.75
2022-09-27T16:05:55.462Z,5.22
2022-09-27T16:08:23.461Z,3.10
2022-09-27T16:10:58.214Z,6.07
2022-09-27T16:13:31.622Z,1.90
2022-09-27T16:16:02.022Z,2.53
2022-09-27T16:18:30.808Z,3.17
2022-09-27T16:20:59.591Z,6.10
2022-09-27T16:23:26.525Z,5.45
2022-09-27T16:25:54.017Z,12.25
2022-09-27T16:28:20.944Z,8.75
2022-09-27T16:30:48.340Z,11.32
2022-09-27T16:33:15.582Z,13.63
2022-09-27T16:35:42.625Z,12.98
2022-09-27T16:38:13.356Z,3.67
2022-09-27T16:40:40.332Z,5.22
2022-09-27T16:43:07.639Z,2.42
2022-09-27T16:45:36.656Z,3.95
2022-09-27T16:48:04.163Z,3.75
2022-09-27T16:50:49.534Z,6.22
2022-09-27T16:53:16.864Z,5.95
2022-09-27T16:55:43.771Z,7.45
2022-09-27T16:58:10.842Z,8.98
2022-09-27T17:00:38.395Z,11.85
2022-09-27T17:03:05.337Z,8.73
2022-09-27T17:05:33.137Z,8.30
2022-09-27T17:08:00.504Z,13.30
2022-09-27T17:10:27.669Z,20.92
2022-09-27T17:12:57.621Z,16.15
2022-09-27T17:15:24.574Z,9.30
2022-09-27T17:17:51.470Z,8.20
2022-09-27T17:20:18.931Z,20.13
2022-09-27T17:22:45.863Z,11.15
2022-09-27T17:25:12.760Z,13.00
2022-09-27T17:27:39.706Z,12.30
2022-09-27T17:30:07.397Z,19.65
2022-09-27T17:32:35.588Z,16.95
2022-09-27T17:35:02.809Z,11.93
2022-09-27T17:37:30.264Z,11.68
2022-09-27T17:39:57.717Z,14.23
2022-09-27T17:42:25.482Z,5.03
2022-09-27T17:44:52.699Z,13.25
2022-09-27T17:47:38.214Z,16.58
2022-09-27T17:50:24.207Z,12.52
2022-09-27T17:52:52.296Z,15.50
2022-09-27T17:55:19.974Z,10.40
2022-09-27T17:57:48.769Z,16.65
2022-09-27T18:00:16.686Z,20.33
2022-09-27T18:02:45.233Z,15.95
2022-09-27T18:05:12.984Z,18.58
2022-09-27T18:07:39.927Z,14.68
2022-09-27T18:10:07.381Z,11.10
2022-09-27T18:12:35.028Z,9.98
2022-09-27T18:15:03.116Z,9.07
2022-09-27T18:17:30.758Z,16.05
2022-09-27T18:20:00.077Z,4.85
2022-09-27T18:22:31.221Z,6.43
2022-09-27T18:24:58.749Z,4.90
2022-09-27T18:27:26.221Z,5.82
2022-09-27T18:29:54.053Z,8.65
2022-09-27T18:32:21.044Z,4.97
2022-09-27T18:34:47.997Z,4.50
2022-09-27T18:37:14.982Z,3.70
2022-09-27T18:39:42.005Z,9.07
2022-09-27T18:42:09.244Z,10.70
2022-09-27T18:44:36.320Z,10.90
2022-09-27T18:47:03.638Z,20.48
2022-09-27T18:49:33.753Z,7.28
2022-09-27T18:52:02.703Z,4.28
2022-09-27T18:54:29.836Z,6.07
2022-09-27T18:56:56.891Z,8.55
2022-09-27T18:59:24.194Z,8.70
2022-09-27T19:01:51.654Z,7.72
2022-09-27T19:04:24.487Z,6.40
2022-09-27T19:06:53.976Z,14.10
2022-09-27T19:09:21.210Z,13.15
2022-09-27T19:11:48.326Z,5.72
2022-09-27T19:14:18.783Z,14.93
2022-09-27T19:16:48.246Z,10.60
2022-09-27T19:19:19.915Z,16.58
2022-09-27T19:21:47.639Z,10.45
2022-09-27T19:24:15.788Z,13.27
2022-09-27T19:26:42.962Z,17.65
2022-09-27T19:29:10.508Z,17.73
2022-09-27T19:31:37.946Z,19.45
2022-09-27T19:34:05.464Z,14.73
2022-09-27T19:36:32.422Z,17.00
2022-09-27T19:39:00.788Z,12.02
2022-09-27T19:41:27.967Z,18.10
2022-09-27T19:43:56.250Z,14.77
2022-09-27T19:46:28.270Z,14.48
2022-09-27T19:48:56.279Z,12.50
2022-09-27T19:51:25.439Z,11.98
2022-09-27T19:53:53.794Z,10.18
2022-09-27T19:56:21.586Z,5.30
2022-09-27T19:58:51.501Z,7.50
2022-09-27T20:01:21.484Z,7.60
2022-09-27T20:03:50.330Z,8.32
2022-09-27T20:06:19.990Z,15.32
2022-09-27T20:08:50.314Z,10.27
2022-09-27T20:11:19.477Z,15.60
2022-09-27T20:13:46.874Z,7.40
2022-09-27T20:16:13.920Z,8.60
2022-09-27T20:18:46.493Z,4.63
2022-09-27T20:21:14.508Z,19.55
2022-09-27T20:23:42.140Z,10.98
2022-09-27T20:26:14.103Z,4.85
2022-09-27T20:28:43.387Z,4.75
2022-09-27T20:31:12.177Z,10.73
2022-09-27T20:33:41.932Z,6.85
2022-09-27T20:36:31.363Z,8.63
2022-09-27T20:39:04.632Z,12.95
2022-09-27T20:41:34.597Z,12.18
2022-09-27T20:44:04.870Z,7.72
2022-09-27T20:46:33.314Z,8.73
2022-09-27T20:49:03.235Z,7.55
2022-09-27T20:51:34.633Z,10.13
2022-09-27T20:54:03.386Z,12.45
2022-09-27T20:56:33.537Z,29.23
2022-09-27T20:59:03.959Z,5.35
2022-09-27T21:01:32.562Z,14.18
2022-09-27T21:04:04.817Z,17.20
2022-09-27T21:06:33.386Z,12.07
2022-09-27T21:09:05.481Z,22.65
2022-09-27T21:11:33.692Z,13.55
2022-09-27T21:14:00.762Z,12.95
2022-09-27T21:16:33.067Z,22.80
2022-09-27T21:19:00.365Z,13.85
2022-09-27T21:21:27.378Z,12.82
2022-09-27T21:23:57.329Z,15.15
2022-09-27T21:26:25.975Z,19.70
2022-09-27T21:28:55.561Z,9.43
2022-09-27T21:31:27.074Z,10.13
2022-09-27T21:33:59.218Z,11.07
2022-09-27T21:36:36.063Z,14.57
2022-09-27T21:39:05.021Z,10.10
2022-09-27T21:41:31.908Z,14.32
2022-09-27T21:44:02.804Z,8.88
2022-09-27T21:46:30.127Z,11.65
2022-09-27T21:48:58.965Z,9.30
2022-09-27T21:51:27.674Z,8.55
2022-09-27T21:54:00.864Z,8.55
2022-09-27T21:56:32.312Z,17.33
2022-09-27T21:58:59.557Z,11.90
2022-09-27T22:01:29.689Z,16.45
2022-09-27T22:03:58.654Z,13.20
2022-09-27T22:06:37.476Z,10.88
2022-09-27T22:09:08.321Z,17.55
2022-09-27T22:11:39.069Z,19.10
2022-09-27T22:14:06.984Z,14.57
2022-09-27T22:16:34.219Z,10.65
2022-09-27T22:19:01.488Z,13.90
2022-09-27T22:21:31.481Z,15.95
2022-09-27T22:24:06.531Z,20.92
2022-09-27T22:26:36.575Z,19.23
2022-09-27T22:29:04.277Z,14.18
2022-09-27T22:31:31.402Z,16.50
2022-09-27T22:34:03.870Z,12.07
2022-09-27T22:36:32.040Z,11.18
2022-09-27T22:38:59.350Z,8.38
2022-09-27T22:41:26.900Z,9.85
2022-09-27T22:43:53.825Z,13.95
2022-09-27T22:46:22.322Z,10.23
2022-09-27T22:48:54.489Z,13.52
2022-09-27T22:51:21.568Z,11.98
2022-09-27T22:53:48.498Z,15.10
2022-09-27T22:56:19.642Z,13.13
2022-09-27T22:58:48.357Z,8.65
2022-09-27T23:01:21.257Z,11.02
2022-09-27T23:03:50.772Z,12.23
2022-09-27T23:06:19.879Z,9.98
2022-09-27T23:08:47.736Z,10.77
2022-09-27T23:11:20.433Z,14.13
2022-09-27T23:13:48.905Z,12.32
2022-09-27T23:16:24.442Z,12.18
2022-09-27T23:18:56.751Z,10.82
2022-09-27T23:21:26.743Z,9.23
2022-09-27T23:23:56.255Z,14.27
2022-09-27T23:26:29.182Z,11.60
2022-09-27T23:29:01.537Z,17.58
2022-09-27T23:31:31.278Z,16.77
2022-09-27T23:34:01.692Z,14.85
2022-09-27T23:36:29.125Z,15.80
2022-09-27T23:39:00.643Z,18.25
2022-09-27T23:41:28.206Z,17.83
2022-09-27T23:43:55.532Z,17.67
2022-09-27T23:46:23.954Z,18.60
2022-09-27T23:48:50.888Z,31.33
2022-09-27T23:51:19.162Z,12.23
2022-09-27T23:53:46.047Z,17.17
2022-09-27T23:56:15.886Z,17.60
2022-09-27T23:58:45.015Z,19.67
